Tropical Cyclones
[Index]
Main Index Home Page Stock Weather Photos Extreme Storms Discussion Storm News and Storm Chasing Reports Tropical Cyclones / Hurricanes / Typhoons Weather Data and Links Wild Fires / Bushfires Weather Observation Techniques Weather Picture Catalogue Tornado Pictures and Reports Stock Video Footage and DVDs for sale
Season 2013-2014 Tropical Cyclone LUSI Track Map
Season 2013-2014 Summaries: [BoM-AU] [JTWC-AU] [JTWC-SIO] [JTWC-SPAC] [JTWC-SH]
<<- Previous TC | JTWC 2013-2014 Season | Next TC ->>

click for intensity scale information  Lat/long Grid: Show Hide

 Date Labels: Show Hide

Joint Typhoon Warning Centre Cyclone Data

Name: LUSI

08 Mar 2014 18:00 UTC to 14 Mar 2014 12:00 UTC

    date/time    lat    long     hPa   cat  kts
2014-03-08 18   15.7   169.3    1007         20          
2014-03-09 00   15.2   168.7    1007         20          
2014-03-09 06   14.9   167.9    1004         25          
2014-03-09 12   14.6   167.6    1004         25          
2014-03-09 18   14.4   167.2    1000         30          
2014-03-10 00   14.5   166.6    1000         30          
2014-03-10 06   15.0   166.3     989    1    45          
2014-03-10 12   15.2   166.6     993    1    40          
2014-03-10 18   15.4   166.9     993    1    40          
2014-03-11 00   15.7   167.5     989    1    45          
2014-03-11 06   16.2   167.9     989    1    45          
2014-03-11 12   16.7   168.9     985    1    50          
2014-03-11 12   16.7   168.9     985    1    50          
2014-03-11 18   17.1   170.0     982    2    55          
2014-03-11 18   17.1   170.0     982    2    55          
2014-03-12 00   17.7   171.0     982    2    55          
2014-03-12 00   17.7   171.0     982    2    55          
2014-03-12 06   18.8   171.6     978    2    60          
2014-03-12 06   18.8   171.6     978    2    60          
2014-03-12 12   19.7   172.4     974    2    65          
2014-03-12 12   19.7   172.4     974    2    65          
2014-03-12 18   20.7   173.1     974    2    65          
2014-03-12 18   20.7   173.1     974    2    65          
2014-03-12 18   20.7   173.1     974    2    65          
2014-03-13 00   21.8   174.0     970    2    70          
2014-03-13 00   21.8   174.0     970    2    70          
2014-03-13 00   21.8   174.0     970    2    70          
2014-03-13 06   23.5   173.9     970    2    70          
2014-03-13 06   23.5   173.9     970    2    70          
2014-03-13 12   25.2   173.9     978    2    60          
2014-03-13 12   25.2   173.9     978    2    60          
2014-03-13 18   26.5   173.4     989    1    45          
2014-03-14 00   27.8   173.8    1000         30          
2014-03-14 06   29.7   173.9    1004         25          
2014-03-14 12   30.7   172.6    1007         20          
Winds are 1-min average.

Tropical cyclone tracks developed by Michael Bath using data from the Joint Typhoon Warning Centre Best Tracks and Google Maps.


[Australian Severe Weather index] [Copyright Notice] [Email Contacts] [Search This Site] [Privacy Policy]
Document: tropical_cyclone_lusi.htm Updated: 28 June 2017